Dominion City, Canada
Current Conditions -  °F | °C
As of 3:33 AM on Friday 24 Oct 2014 (Local Time) from KHCO Reporting Station
Clear Clear  
Wind Chill: 42°   Ceiling: Unl
Heat Index: 46°   Visibility: 10mi
Dew Point: 39°   Wind: 8mph
Humidity: 76%   Direction: 170°S
Pressure: 29.71"   Gusts: NA
Location:  49.13°N, 97.15°W
Report Text: KHCO 240833Z AUTO 17007KT 10SM CLR 08/04 A2971 RMK AO2
Loading
Personal Weather Stations






























Interactive Weather Map
Tropical Storm Tracking
New forecast layout! Learn more

10-Day Weather Forecast

Advertisements
Track Severe Weather on mobile